sensor_id;sensor_type;location;lat;lon;timestamp;P1;durP1;ratioP1;P2;durP2;ratioP2
19816;SDS011;68323;49.394;8.434;2024-03-07T00:01:38;67.33;;;37.77;;
19816;SDS011;68323;49.394;8.434;2024-03-07T00:04:04;72.10;;;39.70;;
19816;SDS011;68323;49.394;8.434;2024-03-07T00:06:30;69.37;;;39.53;;
19816;SDS011;68323;49.394;8.434;2024-03-07T00:08:56;69.03;;;38.97;;
19816;SDS011;68323;49.394;8.434;2024-03-07T00:11:22;64.93;;;37.93;;
19816;SDS011;68323;49.394;8.434;2024-03-07T00:13:48;73.63;;;39.67;;
19816;SDS011;68323;49.394;8.434;2024-03-07T00:16:14;68.37;;;38.23;;
19816;SDS011;68323;49.394;8.434;2024-03-07T00:18:40;72.17;;;40.17;;
19816;SDS011;68323;49.394;8.434;2024-03-07T00:21:06;70.47;;;39.80;;
19816;SDS011;68323;49.394;8.434;2024-03-07T00:23:33;67.93;;;39.40;;
19816;SDS011;68323;49.394;8.434;2024-03-07T00:25:59;70.40;;;40.23;;
19816;SDS011;68323;49.394;8.434;2024-03-07T00:28:25;70.67;;;39.07;;
19816;SDS011;68323;49.394;8.434;2024-03-07T00:30:57;69.10;;;38.73;;
19816;SDS011;68323;49.394;8.434;2024-03-07T00:33:23;65.80;;;39.20;;
19816;SDS011;68323;49.394;8.434;2024-03-07T00:35:50;70.87;;;40.63;;
19816;SDS011;68323;49.394;8.434;2024-03-07T00:38:16;68.27;;;39.17;;
19816;SDS011;68323;49.394;8.434;2024-03-07T00:40:42;68.93;;;38.73;;
19816;SDS011;68323;49.394;8.434;2024-03-07T00:43:08;70.60;;;39.00;;
19816;SDS011;68323;49.394;8.434;2024-03-07T00:45:34;69.50;;;39.57;;
19816;SDS011;68323;49.394;8.434;2024-03-07T00:48:00;71.40;;;41.80;;
19816;SDS011;68323;49.394;8.434;2024-03-07T00:50:26;69.87;;;40.33;;
19816;SDS011;68323;49.394;8.434;2024-03-07T00:52:52;69.73;;;42.10;;
19816;SDS011;68323;49.394;8.434;2024-03-07T00:55:18;71.30;;;41.30;;
19816;SDS011;68323;49.394;8.434;2024-03-07T00:57:44;71.37;;;41.90;;
19816;SDS011;68323;49.394;8.434;2024-03-07T01:00:11;72.67;;;41.27;;
19816;SDS011;68323;49.394;8.434;2024-03-07T01:02:42;75.53;;;42.23;;
19816;SDS011;68323;49.394;8.434;2024-03-07T01:05:11;72.07;;;42.33;;
19816;SDS011;68323;49.394;8.434;2024-03-07T01:07:42;74.20;;;42.77;;
19816;SDS011;68323;49.394;8.434;2024-03-07T01:10:09;72.67;;;41.23;;
19816;SDS011;68323;49.394;8.434;2024-03-07T01:12:35;75.37;;;42.17;;
19816;SDS011;68323;49.394;8.434;2024-03-07T01:15:01;77.40;;;43.13;;
19816;SDS011;68323;49.394;8.434;2024-03-07T01:17:29;72.27;;;42.03;;
19816;SDS011;68323;49.394;8.434;2024-03-07T01:19:55;72.50;;;40.63;;
19816;SDS011;68323;49.394;8.434;2024-03-07T01:22:21;73.03;;;41.40;;
19816;SDS011;68323;49.394;8.434;2024-03-07T01:24:48;74.07;;;42.83;;
19816;SDS011;68323;49.394;8.434;2024-03-07T01:27:15;84.87;;;44.07;;
19816;SDS011;68323;49.394;8.434;2024-03-07T01:29:41;77.23;;;44.23;;
19816;SDS011;68323;49.394;8.434;2024-03-07T01:32:09;78.30;;;43.27;;
19816;SDS011;68323;49.394;8.434;2024-03-07T01:34:35;77.73;;;44.47;;
19816;SDS011;68323;49.394;8.434;2024-03-07T01:37:01;74.93;;;43.43;;
19816;SDS011;68323;49.394;8.434;2024-03-07T01:39:27;75.60;;;43.03;;
19816;SDS011;68323;49.394;8.434;2024-03-07T01:41:53;74.90;;;43.73;;
19816;SDS011;68323;49.394;8.434;2024-03-07T01:44:19;80.23;;;44.83;;
19816;SDS011;68323;49.394;8.434;2024-03-07T01:46:45;77.53;;;44.47;;
19816;SDS011;68323;49.394;8.434;2024-03-07T01:49:11;76.50;;;44.67;;
19816;SDS011;68323;49.394;8.434;2024-03-07T01:51:37;80.47;;;43.73;;
19816;SDS011;68323;49.394;8.434;2024-03-07T01:54:05;79.50;;;44.70;;
19816;SDS011;68323;49.394;8.434;2024-03-07T01:56:33;75.73;;;44.10;;
19816;SDS011;68323;49.394;8.434;2024-03-07T01:58:59;75.03;;;43.07;;
19816;SDS011;68323;49.394;8.434;2024-03-07T02:01:26;74.90;;;42.47;;
19816;SDS011;68323;49.394;8.434;2024-03-07T02:03:52;73.10;;;42.30;;
19816;SDS011;68323;49.394;8.434;2024-03-07T02:06:18;71.33;;;42.27;;
19816;SDS011;68323;49.394;8.434;2024-03-07T02:08:44;75.60;;;42.87;;
19816;SDS011;68323;49.394;8.434;2024-03-07T02:11:11;72.33;;;42.33;;
19816;SDS011;68323;49.394;8.434;2024-03-07T02:13:38;72.30;;;42.13;;
19816;SDS011;68323;49.394;8.434;2024-03-07T02:16:04;70.90;;;41.77;;
19816;SDS011;68323;49.394;8.434;2024-03-07T02:18:30;77.53;;;43.20;;
19816;SDS011;68323;49.394;8.434;2024-03-07T02:20:56;73.00;;;43.13;;
19816;SDS011;68323;49.394;8.434;2024-03-07T02:23:22;74.13;;;43.90;;
19816;SDS011;68323;49.394;8.434;2024-03-07T02:25:48;73.97;;;42.73;;
19816;SDS011;68323;49.394;8.434;2024-03-07T02:28:14;74.73;;;43.17;;
19816;SDS011;68323;49.394;8.434;2024-03-07T02:30:40;74.17;;;43.63;;
19816;SDS011;68323;49.394;8.434;2024-03-07T02:33:06;73.93;;;42.63;;
19816;SDS011;68323;49.394;8.434;2024-03-07T02:35:35;65.13;;;39.83;;
19816;SDS011;68323;49.394;8.434;2024-03-07T02:38:04;71.33;;;42.20;;
19816;SDS011;68323;49.394;8.434;2024-03-07T02:40:30;75.77;;;42.97;;
19816;SDS011;68323;49.394;8.434;2024-03-07T02:42:56;74.77;;;42.97;;
19816;SDS011;68323;49.394;8.434;2024-03-07T02:45:23;68.63;;;41.47;;
19816;SDS011;68323;49.394;8.434;2024-03-07T02:47:49;75.50;;;43.73;;
19816;SDS011;68323;49.394;8.434;2024-03-07T02:50:15;81.10;;;44.73;;
19816;SDS011;68323;49.394;8.434;2024-03-07T02:52:41;83.13;;;44.93;;
19816;SDS011;68323;49.394;8.434;2024-03-07T02:55:07;80.43;;;45.17;;
19816;SDS011;68323;49.394;8.434;2024-03-07T02:57:35;82.23;;;45.60;;
19816;SDS011;68323;49.394;8.434;2024-03-07T03:00:02;85.60;;;45.60;;
19816;SDS011;68323;49.394;8.434;2024-03-07T03:02:38;87.57;;;48.27;;
19816;SDS011;68323;49.394;8.434;2024-03-07T03:05:04;84.87;;;46.50;;
19816;SDS011;68323;49.394;8.434;2024-03-07T03:07:33;86.67;;;46.23;;
19816;SDS011;68323;49.394;8.434;2024-03-07T03:09:59;91.50;;;47.23;;
19816;SDS011;68323;49.394;8.434;2024-03-07T03:12:24;88.43;;;48.40;;
19816;SDS011;68323;49.394;8.434;2024-03-07T03:14:51;91.23;;;47.27;;
19816;SDS011;68323;49.394;8.434;2024-03-07T03:17:18;94.37;;;48.60;;
19816;SDS011;68323;49.394;8.434;2024-03-07T03:19:44;93.13;;;49.00;;
19816;SDS011;68323;49.394;8.434;2024-03-07T03:22:14;89.97;;;47.47;;
19816;SDS011;68323;49.394;8.434;2024-03-07T03:24:40;91.43;;;48.87;;
19816;SDS011;68323;49.394;8.434;2024-03-07T03:27:06;88.10;;;47.83;;
19816;SDS011;68323;49.394;8.434;2024-03-07T03:29:33;91.37;;;48.67;;
19816;SDS011;68323;49.394;8.434;2024-03-07T03:31:59;86.60;;;46.73;;
19816;SDS011;68323;49.394;8.434;2024-03-07T03:34:25;82.70;;;44.97;;
19816;SDS011;68323;49.394;8.434;2024-03-07T03:36:51;81.27;;;43.57;;
19816;SDS011;68323;49.394;8.434;2024-03-07T03:39:17;82.37;;;44.03;;
19816;SDS011;68323;49.394;8.434;2024-03-07T03:41:45;76.70;;;42.77;;
19816;SDS011;68323;49.394;8.434;2024-03-07T03:44:11;78.17;;;43.97;;
19816;SDS011;68323;49.394;8.434;2024-03-07T03:46:37;81.60;;;42.73;;
19816;SDS011;68323;49.394;8.434;2024-03-07T03:49:03;79.67;;;44.27;;
19816;SDS011;68323;49.394;8.434;2024-03-07T03:51:31;83.10;;;43.40;;
19816;SDS011;68323;49.394;8.434;2024-03-07T03:53:57;77.97;;;44.27;;
19816;SDS011;68323;49.394;8.434;2024-03-07T03:56:23;81.00;;;43.47;;
19816;SDS011;68323;49.394;8.434;2024-03-07T03:58:49;79.37;;;42.70;;
19816;SDS011;68323;49.394;8.434;2024-03-07T04:01:15;83.20;;;45.30;;
19816;SDS011;68323;49.394;8.434;2024-03-07T04:03:41;87.20;;;46.10;;
19816;SDS011;68323;49.394;8.434;2024-03-07T04:06:07;81.73;;;44.60;;
19816;SDS011;68323;49.394;8.434;2024-03-07T04:08:34;84.60;;;43.70;;
19816;SDS011;68323;49.394;8.434;2024-03-07T04:11:01;80.70;;;43.80;;
19816;SDS011;68323;49.394;8.434;2024-03-07T04:13:28;81.17;;;44.17;;
19816;SDS011;68323;49.394;8.434;2024-03-07T04:15:55;81.07;;;43.07;;
19816;SDS011;68323;49.394;8.434;2024-03-07T04:18:21;80.90;;;43.33;;
19816;SDS011;68323;49.394;8.434;2024-03-07T04:20:47;85.47;;;45.13;;
19816;SDS011;68323;49.394;8.434;2024-03-07T04:23:13;77.80;;;41.83;;
19816;SDS011;68323;49.394;8.434;2024-03-07T04:25:39;76.57;;;42.50;;
19816;SDS011;68323;49.394;8.434;2024-03-07T04:28:05;74.43;;;39.80;;
19816;SDS011;68323;49.394;8.434;2024-03-07T04:30:31;71.03;;;40.03;;
19816;SDS011;68323;49.394;8.434;2024-03-07T04:32:57;69.77;;;39.33;;
19816;SDS011;68323;49.394;8.434;2024-03-07T04:35:23;71.50;;;40.00;;
19816;SDS011;68323;49.394;8.434;2024-03-07T04:37:49;72.00;;;40.20;;
19816;SDS011;68323;49.394;8.434;2024-03-07T04:40:15;75.23;;;42.30;;
19816;SDS011;68323;49.394;8.434;2024-03-07T04:42:42;71.70;;;40.20;;
19816;SDS011;68323;49.394;8.434;2024-03-07T04:45:08;68.07;;;38.57;;
19816;SDS011;68323;49.394;8.434;2024-03-07T04:47:35;63.10;;;37.47;;
19816;SDS011;68323;49.394;8.434;2024-03-07T04:50:02;63.50;;;37.27;;
19816;SDS011;68323;49.394;8.434;2024-03-07T04:52:29;64.00;;;36.27;;
19816;SDS011;68323;49.394;8.434;2024-03-07T04:54:55;64.73;;;36.37;;
19816;SDS011;68323;49.394;8.434;2024-03-07T04:57:21;60.03;;;34.53;;
19816;SDS011;68323;49.394;8.434;2024-03-07T04:59:47;58.77;;;34.83;;
19816;SDS011;68323;49.394;8.434;2024-03-07T05:02:13;59.57;;;34.53;;
19816;SDS011;68323;49.394;8.434;2024-03-07T05:04:39;60.10;;;34.20;;
19816;SDS011;68323;49.394;8.434;2024-03-07T05:07:05;60.53;;;35.13;;
19816;SDS011;68323;49.394;8.434;2024-03-07T05:09:31;60.67;;;36.00;;
19816;SDS011;68323;49.394;8.434;2024-03-07T05:11:58;62.10;;;35.53;;
19816;SDS011;68323;49.394;8.434;2024-03-07T05:14:24;62.57;;;36.83;;
19816;SDS011;68323;49.394;8.434;2024-03-07T05:16:50;59.00;;;36.13;;
19816;SDS011;68323;49.394;8.434;2024-03-07T05:19:33;63.17;;;36.47;;
19816;SDS011;68323;49.394;8.434;2024-03-07T05:21:59;64.10;;;36.90;;
19816;SDS011;68323;49.394;8.434;2024-03-07T05:24:25;63.10;;;36.57;;
19816;SDS011;68323;49.394;8.434;2024-03-07T05:26:52;67.67;;;37.00;;
19816;SDS011;68323;49.394;8.434;2024-03-07T05:29:19;59.63;;;34.57;;
19816;SDS011;68323;49.394;8.434;2024-03-07T05:31:44;65.33;;;38.53;;
19816;SDS011;68323;49.394;8.434;2024-03-07T05:34:16;65.53;;;37.17;;
19816;SDS011;68323;49.394;8.434;2024-03-07T05:36:48;62.33;;;35.37;;
19816;SDS011;68323;49.394;8.434;2024-03-07T05:39:14;65.77;;;36.00;;
19816;SDS011;68323;49.394;8.434;2024-03-07T05:41:41;60.20;;;33.43;;
19816;SDS011;68323;49.394;8.434;2024-03-07T05:44:07;61.53;;;34.33;;
19816;SDS011;68323;49.394;8.434;2024-03-07T05:46:37;65.67;;;35.37;;
19816;SDS011;68323;49.394;8.434;2024-03-07T05:49:06;60.97;;;34.43;;
19816;SDS011;68323;49.394;8.434;2024-03-07T05:51:32;62.00;;;34.63;;
19816;SDS011;68323;49.394;8.434;2024-03-07T05:53:58;58.90;;;33.70;;
19816;SDS011;68323;49.394;8.434;2024-03-07T05:56:24;56.83;;;32.63;;
19816;SDS011;68323;49.394;8.434;2024-03-07T05:58:50;58.63;;;33.87;;
19816;SDS011;68323;49.394;8.434;2024-03-07T06:01:17;63.43;;;34.43;;
19816;SDS011;68323;49.394;8.434;2024-03-07T06:03:46;64.23;;;37.70;;
19816;SDS011;68323;49.394;8.434;2024-03-07T06:06:13;67.53;;;37.90;;
19816;SDS011;68323;49.394;8.434;2024-03-07T06:08:39;67.27;;;37.83;;
19816;SDS011;68323;49.394;8.434;2024-03-07T06:11:07;69.33;;;38.13;;
19816;SDS011;68323;49.394;8.434;2024-03-07T06:13:33;68.33;;;36.80;;
19816;SDS011;68323;49.394;8.434;2024-03-07T06:16:00;61.83;;;35.30;;
19816;SDS011;68323;49.394;8.434;2024-03-07T06:18:30;63.87;;;35.40;;
19816;SDS011;68323;49.394;8.434;2024-03-07T06:20:56;64.60;;;34.90;;
19816;SDS011;68323;49.394;8.434;2024-03-07T06:23:22;61.63;;;35.17;;
19816;SDS011;68323;49.394;8.434;2024-03-07T06:25:49;59.80;;;32.93;;
19816;SDS011;68323;49.394;8.434;2024-03-07T06:28:19;56.83;;;32.93;;
19816;SDS011;68323;49.394;8.434;2024-03-07T06:30:45;59.77;;;32.97;;
19816;SDS011;68323;49.394;8.434;2024-03-07T06:33:12;51.73;;;31.00;;
19816;SDS011;68323;49.394;8.434;2024-03-07T06:35:39;51.30;;;28.97;;
19816;SDS011;68323;49.394;8.434;2024-03-07T06:38:06;49.10;;;29.00;;
19816;SDS011;68323;49.394;8.434;2024-03-07T06:40:33;48.53;;;29.03;;
19816;SDS011;68323;49.394;8.434;2024-03-07T06:42:59;51.10;;;29.53;;
19816;SDS011;68323;49.394;8.434;2024-03-07T06:45:26;51.60;;;30.13;;
19816;SDS011;68323;49.394;8.434;2024-03-07T06:47:52;50.33;;;28.93;;
19816;SDS011;68323;49.394;8.434;2024-03-07T06:50:18;51.57;;;28.60;;
19816;SDS011;68323;49.394;8.434;2024-03-07T06:52:45;51.23;;;28.63;;
19816;SDS011;68323;49.394;8.434;2024-03-07T06:55:15;50.43;;;28.40;;
19816;SDS011;68323;49.394;8.434;2024-03-07T06:57:42;48.07;;;28.13;;
19816;SDS011;68323;49.394;8.434;2024-03-07T07:00:08;53.90;;;29.27;;
19816;SDS011;68323;49.394;8.434;2024-03-07T07:02:39;46.20;;;29.20;;
19816;SDS011;68323;49.394;8.434;2024-03-07T07:05:06;51.10;;;29.73;;
19816;SDS011;68323;49.394;8.434;2024-03-07T07:07:36;55.83;;;31.20;;
19816;SDS011;68323;49.394;8.434;2024-03-07T07:10:03;49.80;;;30.37;;
19816;SDS011;68323;49.394;8.434;2024-03-07T07:12:29;47.27;;;28.43;;
19816;SDS011;68323;49.394;8.434;2024-03-07T07:14:55;48.47;;;28.73;;
19816;SDS011;68323;49.394;8.434;2024-03-07T07:17:21;47.87;;;28.43;;
19816;SDS011;68323;49.394;8.434;2024-03-07T07:19:49;49.13;;;29.40;;
19816;SDS011;68323;49.394;8.434;2024-03-07T07:22:17;43.70;;;28.23;;
19816;SDS011;68323;49.394;8.434;2024-03-07T07:24:43;43.80;;;29.00;;
19816;SDS011;68323;49.394;8.434;2024-03-07T07:27:09;45.23;;;29.00;;
19816;SDS011;68323;49.394;8.434;2024-03-07T07:29:35;43.33;;;28.60;;
19816;SDS011;68323;49.394;8.434;2024-03-07T07:32:01;45.63;;;28.03;;
19816;SDS011;68323;49.394;8.434;2024-03-07T07:34:27;40.30;;;26.50;;
19816;SDS011;68323;49.394;8.434;2024-03-07T07:36:53;45.17;;;28.47;;
19816;SDS011;68323;49.394;8.434;2024-03-07T07:39:19;43.47;;;28.47;;
19816;SDS011;68323;49.394;8.434;2024-03-07T07:41:45;38.20;;;26.70;;
19816;SDS011;68323;49.394;8.434;2024-03-07T07:44:11;41.53;;;27.00;;
19816;SDS011;68323;49.394;8.434;2024-03-07T07:46:37;44.23;;;27.80;;
19816;SDS011;68323;49.394;8.434;2024-03-07T07:49:02;42.13;;;27.37;;
19816;SDS011;68323;49.394;8.434;2024-03-07T07:51:28;40.30;;;26.73;;
19816;SDS011;68323;49.394;8.434;2024-03-07T07:53:54;42.37;;;27.10;;
19816;SDS011;68323;49.394;8.434;2024-03-07T07:56:22;39.60;;;25.67;;
19816;SDS011;68323;49.394;8.434;2024-03-07T07:58:48;39.37;;;25.97;;
19816;SDS011;68323;49.394;8.434;2024-03-07T08:01:14;40.37;;;27.47;;
19816;SDS011;68323;49.394;8.434;2024-03-07T08:03:42;37.00;;;25.37;;
19816;SDS011;68323;49.394;8.434;2024-03-07T08:06:08;33.73;;;23.60;;
19816;SDS011;68323;49.394;8.434;2024-03-07T08:08:34;32.77;;;22.97;;
19816;SDS011;68323;49.394;8.434;2024-03-07T08:11:00;38.27;;;22.83;;
19816;SDS011;68323;49.394;8.434;2024-03-07T08:13:26;32.20;;;21.33;;
19816;SDS011;68323;49.394;8.434;2024-03-07T08:15:52;29.23;;;20.40;;
19816;SDS011;68323;49.394;8.434;2024-03-07T08:18:21;32.20;;;19.57;;
19816;SDS011;68323;49.394;8.434;2024-03-07T08:20:47;28.47;;;20.07;;
19816;SDS011;68323;49.394;8.434;2024-03-07T08:23:13;28.90;;;19.20;;
19816;SDS011;68323;49.394;8.434;2024-03-07T08:25:39;25.67;;;19.13;;
19816;SDS011;68323;49.394;8.434;2024-03-07T08:28:05;27.57;;;19.57;;
19816;SDS011;68323;49.394;8.434;2024-03-07T08:30:31;27.20;;;19.53;;
19816;SDS011;68323;49.394;8.434;2024-03-07T08:32:57;26.90;;;17.70;;
19816;SDS011;68323;49.394;8.434;2024-03-07T08:35:26;24.80;;;18.40;;
19816;SDS011;68323;49.394;8.434;2024-03-07T08:37:54;23.17;;;18.07;;
19816;SDS011;68323;49.394;8.434;2024-03-07T08:40:24;21.90;;;18.00;;
19816;SDS011;68323;49.394;8.434;2024-03-07T08:42:51;24.23;;;18.13;;
19816;SDS011;68323;49.394;8.434;2024-03-07T08:45:17;24.53;;;17.87;;
19816;SDS011;68323;49.394;8.434;2024-03-07T08:47:47;22.53;;;17.10;;
19816;SDS011;68323;49.394;8.434;2024-03-07T08:50:13;20.80;;;16.67;;
19816;SDS011;68323;49.394;8.434;2024-03-07T08:52:40;24.53;;;17.67;;
19816;SDS011;68323;49.394;8.434;2024-03-07T08:55:07;22.10;;;17.33;;
19816;SDS011;68323;49.394;8.434;2024-03-07T08:57:37;25.23;;;17.60;;
19816;SDS011;68323;49.394;8.434;2024-03-07T09:00:04;23.60;;;16.87;;
19816;SDS011;68323;49.394;8.434;2024-03-07T09:02:40;22.37;;;16.63;;
19816;SDS011;68323;49.394;8.434;2024-03-07T09:05:07;25.93;;;17.83;;
19816;SDS011;68323;49.394;8.434;2024-03-07T09:07:35;24.03;;;18.70;;
19816;SDS011;68323;49.394;8.434;2024-03-07T09:10:01;23.73;;;18.17;;
19816;SDS011;68323;49.394;8.434;2024-03-07T09:12:27;25.23;;;18.80;;
19816;SDS011;68323;49.394;8.434;2024-03-07T09:14:53;26.13;;;18.00;;
19816;SDS011;68323;49.394;8.434;2024-03-07T09:17:23;24.30;;;17.97;;
19816;SDS011;68323;49.394;8.434;2024-03-07T09:19:49;21.73;;;16.93;;
19816;SDS011;68323;49.394;8.434;2024-03-07T09:22:15;22.33;;;16.17;;
19816;SDS011;68323;49.394;8.434;2024-03-07T09:24:41;20.83;;;15.60;;
19816;SDS011;68323;49.394;8.434;2024-03-07T09:27:07;20.60;;;15.33;;
19816;SDS011;68323;49.394;8.434;2024-03-07T09:29:33;21.57;;;16.10;;
19816;SDS011;68323;49.394;8.434;2024-03-07T09:31:59;20.03;;;15.77;;
19816;SDS011;68323;49.394;8.434;2024-03-07T09:34:25;20.57;;;15.90;;
19816;SDS011;68323;49.394;8.434;2024-03-07T09:36:51;21.40;;;16.33;;
19816;SDS011;68323;49.394;8.434;2024-03-07T09:39:18;18.40;;;15.50;;
19816;SDS011;68323;49.394;8.434;2024-03-07T09:41:44;21.33;;;16.23;;
19816;SDS011;68323;49.394;8.434;2024-03-07T09:44:12;17.80;;;15.00;;
19816;SDS011;68323;49.394;8.434;2024-03-07T09:46:42;22.17;;;17.43;;
19816;SDS011;68323;49.394;8.434;2024-03-07T09:49:11;24.37;;;17.20;;
19816;SDS011;68323;49.394;8.434;2024-03-07T09:51:37;24.03;;;16.63;;
19816;SDS011;68323;49.394;8.434;2024-03-07T09:54:03;19.93;;;15.80;;
19816;SDS011;68323;49.394;8.434;2024-03-07T09:56:30;21.30;;;15.97;;
19816;SDS011;68323;49.394;8.434;2024-03-07T09:59:05;24.50;;;17.57;;
19816;SDS011;68323;49.394;8.434;2024-03-07T10:01:36;21.03;;;17.07;;
19816;SDS011;68323;49.394;8.434;2024-03-07T10:04:03;22.23;;;18.03;;
19816;SDS011;68323;49.394;8.434;2024-03-07T10:06:40;23.37;;;17.80;;
19816;SDS011;68323;49.394;8.434;2024-03-07T10:09:06;21.67;;;17.33;;
19816;SDS011;68323;49.394;8.434;2024-03-07T10:11:36;27.50;;;18.93;;
19816;SDS011;68323;49.394;8.434;2024-03-07T10:14:02;26.77;;;18.53;;
19816;SDS011;68323;49.394;8.434;2024-03-07T10:16:29;24.37;;;19.30;;
19816;SDS011;68323;49.394;8.434;2024-03-07T10:18:55;24.73;;;19.07;;
19816;SDS011;68323;49.394;8.434;2024-03-07T10:21:21;26.70;;;19.27;;
19816;SDS011;68323;49.394;8.434;2024-03-07T10:23:49;26.90;;;19.03;;
19816;SDS011;68323;49.394;8.434;2024-03-07T10:26:18;30.40;;;19.17;;
19816;SDS011;68323;49.394;8.434;2024-03-07T10:28:44;26.40;;;18.53;;
19816;SDS011;68323;49.394;8.434;2024-03-07T10:31:10;26.83;;;18.90;;
19816;SDS011;68323;49.394;8.434;2024-03-07T10:33:37;26.50;;;18.73;;
19816;SDS011;68323;49.394;8.434;2024-03-07T10:36:03;29.90;;;18.90;;
19816;SDS011;68323;49.394;8.434;2024-03-07T10:38:29;23.70;;;17.70;;
19816;SDS011;68323;49.394;8.434;2024-03-07T10:40:56;29.57;;;18.83;;
19816;SDS011;68323;49.394;8.434;2024-03-07T10:43:22;29.17;;;18.87;;
19816;SDS011;68323;49.394;8.434;2024-03-07T10:45:48;28.77;;;19.07;;
19816;SDS011;68323;49.394;8.434;2024-03-07T10:48:18;29.27;;;19.90;;
19816;SDS011;68323;49.394;8.434;2024-03-07T10:58:27;29.40;;;19.40;;
19816;SDS011;68323;49.394;8.434;2024-03-07T11:00:58;26.77;;;19.30;;
19816;SDS011;68323;49.394;8.434;2024-03-07T11:03:24;28.23;;;19.03;;
19816;SDS011;68323;49.394;8.434;2024-03-07T11:05:51;28.13;;;19.53;;
19816;SDS011;68323;49.394;8.434;2024-03-07T11:08:18;28.57;;;19.60;;
19816;SDS011;68323;49.394;8.434;2024-03-07T11:10:45;29.83;;;19.93;;
19816;SDS011;68323;49.394;8.434;2024-03-07T11:13:12;30.20;;;20.40;;
19816;SDS011;68323;49.394;8.434;2024-03-07T11:15:39;29.63;;;19.70;;
19816;SDS011;68323;49.394;8.434;2024-03-07T11:18:07;32.47;;;20.90;;
19816;SDS011;68323;49.394;8.434;2024-03-07T11:20:35;28.73;;;20.37;;
19816;SDS011;68323;49.394;8.434;2024-03-07T11:23:24;30.30;;;20.23;;
19816;SDS011;68323;49.394;8.434;2024-03-07T11:25:48;30.13;;;19.77;;
19816;SDS011;68323;49.394;8.434;2024-03-07T11:28:15;27.50;;;19.23;;
19816;SDS011;68323;49.394;8.434;2024-03-07T11:30:45;29.23;;;20.03;;
19816;SDS011;68323;49.394;8.434;2024-03-07T11:33:11;28.83;;;19.60;;
19816;SDS011;68323;49.394;8.434;2024-03-07T11:35:39;30.43;;;20.13;;
19816;SDS011;68323;49.394;8.434;2024-03-07T11:38:06;32.60;;;21.87;;
19816;SDS011;68323;49.394;8.434;2024-03-07T11:43:02;30.47;;;20.20;;
19816;SDS011;68323;49.394;8.434;2024-03-07T11:45:32;32.40;;;21.00;;
19816;SDS011;68323;49.394;8.434;2024-03-07T11:48:03;32.47;;;21.03;;
19816;SDS011;68323;49.394;8.434;2024-03-07T11:50:34;32.20;;;21.77;;
19816;SDS011;68323;49.394;8.434;2024-03-07T11:53:00;32.03;;;22.17;;
19816;SDS011;68323;49.394;8.434;2024-03-07T11:55:27;34.93;;;21.97;;
19816;SDS011;68323;49.394;8.434;2024-03-07T11:57:54;34.43;;;21.80;;
19816;SDS011;68323;49.394;8.434;2024-03-07T12:00:21;35.27;;;21.27;;
19816;SDS011;68323;49.394;8.434;2024-03-07T12:02:49;32.60;;;21.63;;
19816;SDS011;68323;49.394;8.434;2024-03-07T12:05:15;30.43;;;21.07;;
19816;SDS011;68323;49.394;8.434;2024-03-07T12:07:42;35.97;;;22.27;;
19816;SDS011;68323;49.394;8.434;2024-03-07T12:10:08;31.83;;;21.63;;
19816;SDS011;68323;49.394;8.434;2024-03-07T12:12:35;29.20;;;20.47;;
19816;SDS011;68323;49.394;8.434;2024-03-07T12:15:07;31.67;;;21.30;;
19816;SDS011;68323;49.394;8.434;2024-03-07T12:17:45;30.37;;;20.97;;
19816;SDS011;68323;49.394;8.434;2024-03-07T12:20:15;31.23;;;21.23;;
19816;SDS011;68323;49.394;8.434;2024-03-07T12:22:55;33.60;;;21.83;;
19816;SDS011;68323;49.394;8.434;2024-03-07T12:25:21;32.50;;;21.40;;
19816;SDS011;68323;49.394;8.434;2024-03-07T12:28:02;33.90;;;22.03;;
19816;SDS011;68323;49.394;8.434;2024-03-07T12:30:30;31.67;;;21.77;;
19816;SDS011;68323;49.394;8.434;2024-03-07T12:32:58;31.77;;;21.03;;
19816;SDS011;68323;49.394;8.434;2024-03-07T12:35:24;31.40;;;21.77;;
19816;SDS011;68323;49.394;8.434;2024-03-07T12:37:50;31.47;;;21.30;;
19816;SDS011;68323;49.394;8.434;2024-03-07T12:40:16;34.37;;;20.37;;
19816;SDS011;68323;49.394;8.434;2024-03-07T12:42:46;33.20;;;21.43;;
19816;SDS011;68323;49.394;8.434;2024-03-07T12:45:12;32.00;;;20.70;;
19816;SDS011;68323;49.394;8.434;2024-03-07T12:47:42;31.20;;;20.83;;
19816;SDS011;68323;49.394;8.434;2024-03-07T12:50:08;29.90;;;21.00;;
19816;SDS011;68323;49.394;8.434;2024-03-07T12:52:35;30.53;;;21.00;;
19816;SDS011;68323;49.394;8.434;2024-03-07T12:55:01;35.03;;;21.60;;
19816;SDS011;68323;49.394;8.434;2024-03-07T12:57:27;31.80;;;20.67;;
19816;SDS011;68323;49.394;8.434;2024-03-07T12:59:53;29.83;;;21.07;;
19816;SDS011;68323;49.394;8.434;2024-03-07T13:02:20;29.23;;;20.63;;
19816;SDS011;68323;49.394;8.434;2024-03-07T13:04:51;30.70;;;20.47;;
19816;SDS011;68323;49.394;8.434;2024-03-07T13:07:17;33.27;;;20.80;;
19816;SDS011;68323;49.394;8.434;2024-03-07T13:09:42;28.53;;;19.90;;
19816;SDS011;68323;49.394;8.434;2024-03-07T13:12:09;28.90;;;18.77;;
19816;SDS011;68323;49.394;8.434;2024-03-07T13:14:35;27.27;;;18.43;;
19816;SDS011;68323;49.394;8.434;2024-03-07T13:17:01;26.73;;;18.87;;
19816;SDS011;68323;49.394;8.434;2024-03-07T13:19:29;27.67;;;18.07;;
19816;SDS011;68323;49.394;8.434;2024-03-07T13:21:55;26.30;;;17.77;;
19816;SDS011;68323;49.394;8.434;2024-03-07T13:24:22;24.40;;;17.63;;
19816;SDS011;68323;49.394;8.434;2024-03-07T13:26:48;26.97;;;16.63;;
19816;SDS011;68323;49.394;8.434;2024-03-07T13:29:15;24.57;;;17.90;;
19816;SDS011;68323;49.394;8.434;2024-03-07T13:31:42;24.07;;;16.60;;
19816;SDS011;68323;49.394;8.434;2024-03-07T13:34:09;25.30;;;17.13;;
19816;SDS011;68323;49.394;8.434;2024-03-07T13:36:38;23.53;;;16.83;;
19816;SDS011;68323;49.394;8.434;2024-03-07T13:39:05;26.97;;;16.20;;
19816;SDS011;68323;49.394;8.434;2024-03-07T13:41:36;22.13;;;16.13;;
19816;SDS011;68323;49.394;8.434;2024-03-07T13:44:01;23.13;;;15.93;;
19816;SDS011;68323;49.394;8.434;2024-03-07T13:46:28;23.57;;;15.67;;
19816;SDS011;68323;49.394;8.434;2024-03-07T13:48:56;22.93;;;15.87;;
19816;SDS011;68323;49.394;8.434;2024-03-07T13:51:31;24.07;;;15.93;;
19816;SDS011;68323;49.394;8.434;2024-03-07T13:54:00;22.53;;;15.60;;
19816;SDS011;68323;49.394;8.434;2024-03-07T13:56:44;20.97;;;14.87;;
19816;SDS011;68323;49.394;8.434;2024-03-07T13:59:35;24.57;;;16.00;;
19816;SDS011;68323;49.394;8.434;2024-03-07T14:05:09;21.07;;;15.90;;
19816;SDS011;68323;49.394;8.434;2024-03-07T14:07:50;22.07;;;15.83;;
19816;SDS011;68323;49.394;8.434;2024-03-07T14:21:21;23.57;;;15.60;;
19816;SDS011;68323;49.394;8.434;2024-03-07T14:24:03;23.67;;;16.13;;
19816;SDS011;68323;49.394;8.434;2024-03-07T14:26:45;26.07;;;16.53;;
19816;SDS011;68323;49.394;8.434;2024-03-07T14:31:53;25.73;;;17.03;;
19816;SDS011;68323;49.394;8.434;2024-03-07T14:34:23;28.40;;;18.80;;
19816;SDS011;68323;49.394;8.434;2024-03-07T14:36:52;31.83;;;20.27;;
19816;SDS011;68323;49.394;8.434;2024-03-07T14:39:19;29.20;;;18.37;;
19816;SDS011;68323;49.394;8.434;2024-03-07T14:41:50;23.20;;;16.47;;
19816;SDS011;68323;49.394;8.434;2024-03-07T14:44:16;23.23;;;16.10;;
19816;SDS011;68323;49.394;8.434;2024-03-07T14:46:43;25.43;;;16.80;;
19816;SDS011;68323;49.394;8.434;2024-03-07T14:49:13;26.83;;;16.30;;